KGSH/GSH METAR and TAF weather

Enter ICAO airport designator
Station Type Date Time Source
KGSH METAR 2019/12/14 18:53 UTC NOAA

KGSH 141853Z AUTO 28006KT 5SM HZ OVC017 04/01 A2963 RMK AO2 SLP040 T00440011


Station Type Date Time Source
KGSH Decoded METAR 2019/12/14 18:53 UTC NOAA

GOSHEN MUNICIPAL AIRPORT, IN, United States (KGSH) 41-32N 85-47W 252M
Dec 14, 2019 - 01:53 PM EST / 2019.12.14 1853 UTC
Wind: from the W (280 degrees) at 7 MPH (6 KT):0
Visibility: 5 mile(s):0
Sky conditions: overcast
Weather: haze
Temperature: 39.9 F (4.4 C)
Dew Point: 34.0 F (1.1 C)
Relative Humidity: 79%
Pressure (altimeter): 29.63 in. Hg (1003 hPa)
ob: KGSH 141853Z AUTO 28006KT 5SM HZ OVC017 04/01 A2963 RMK AO2 SLP040 T00440011
cycle: 19

Station Type Date Time Source
KGSH TAF UTC NOAA

Error!

Example: see airport list